Terminal Aerodrome Forecast
Issued by NWS Memphis, TN

Home | Current Version | Previous Version | Text Only | Print | Product List | Glossary On
Versions: 1 2 3 4 5 6 7 8 9 10 11 12 13 14
229
FTUS44 KMEG 101128
TAFMKL
TAF
KMKL 101128Z 1012/1112 31006KT P6SM SKC
     FM101500 29008KT P6SM SKC
     FM110000 VRB03KT P6SM SKC
     FM110500 15005KT P6SM BKN250=

USA.gov is the U.S. government's official web portal to all federal, state and local government web resources and services.